Terminal Aerodrome Forecast
Issued by NWS

Current Version | Previous Version | Graphics & Text | Print | Product List | Glossary On
Versions: 1 2 3 4 5 6 7 8 9 10 11 12 13
693
FTUS41 KILN 060524
TAFLCK
TAF
KLCK 060524Z 0606/0706 18005KT P6SM SCT050 SCT250
     FM061600 23008KT P6SM SCT070
     FM062200 20003KT P6SM FEW050=

USA.gov is the U.S. government's official web portal to all federal, state and local government web resources and services.